Time;durP1;ratioP1;P1;durP2;ratioP2;P2;SDS_P1;SDS_P2;PMS_P1;PMS_P2;Temp;Humidity;BMP_temperature;BMP_pressure;BME280_temperature;BME280_humidity;BME280_pressure;Samples;Min_cycle;Max_cycle;Signal;HPM_P1;HPM_P2
2022/09/18 00:01:28;;;;;;;7.87;1.37;;;;;;;8.81;91.66;100016.94;5055560;28;20730;-80
2022/09/18 00:03:56;;;;;;;5.60;1.30;;;;;;;8.85;91.44;100014.25;5055751;28;20235;-79
2022/09/18 00:06:27;;;;;;;7.90;1.00;;;;;;;8.81;91.60;100012.59;5055926;28;20208;-80
2022/09/18 00:08:56;;;;;;;6.97;2.33;;;;;;;8.84;91.70;100022.06;5055934;28;20228;-80
2022/09/18 00:11:26;;;;;;;5.43;1.30;;;;;;;8.82;92.15;100010.84;5057402;28;20193;-79
2022/09/18 00:13:52;;;;;;;5.10;1.13;;;;;;;8.85;92.63;100003.84;5055903;28;20206;-80
2022/09/18 00:16:21;;;;;;;3.83;1.17;;;;;;;8.85;92.68;99992.56;5056534;28;20643;-80
2022/09/18 00:18:48;;;;;;;5.07;1.63;;;;;;;8.79;92.96;100000.50;5056018;28;20201;-79
2022/09/18 00:21:17;;;;;;;3.17;1.07;;;;;;;8.84;93.00;99981.31;5055277;28;20698;-79
2022/09/18 00:23:45;;;;;;;6.47;1.23;;;;;;;8.86;93.01;99995.16;5055442;28;20213;-80
2022/09/18 00:26:14;;;;;;;8.33;2.03;;;;;;;8.96;92.80;100003.66;5055227;28;20263;-79
2022/09/18 00:28:41;;;;;;;4.73;1.27;;;;;;;8.95;92.95;100007.13;5055130;28;20217;-79
2022/09/18 00:31:10;;;;;;;3.43;1.27;;;;;;;8.89;93.27;100004.66;5055699;28;20266;-79
2022/09/18 00:33:38;;;;;;;6.90;1.63;;;;;;;8.89;93.18;100002.88;5055456;28;20201;-79
2022/09/18 00:36:06;;;;;;;6.67;1.20;;;;;;;9.04;93.49;100008.69;5055113;28;20636;-80
2022/09/18 00:38:33;;;;;;;6.70;1.30;;;;;;;8.92;93.65;99992.44;5055246;28;20214;-79
2022/09/18 00:41:06;;;;;;;6.30;1.67;;;;;;;8.87;93.68;100004.66;5054706;28;20667;-79
2022/09/18 00:43:35;;;;;;;5.60;1.43;;;;;;;8.90;94.39;99989.00;5055939;28;20190;-79
2022/09/18 00:46:04;;;;;;;3.80;1.63;;;;;;;8.94;94.48;99990.66;5055475;28;20255;-80
2022/09/18 00:48:40;;;;;;;4.23;1.60;;;;;;;9.00;94.53;99987.09;5055508;28;20210;-80
2022/09/18 00:51:06;;;;;;;8.53;1.83;;;;;;;8.97;94.62;99988.88;5055307;28;20209;-80
2022/09/18 00:53:34;;;;;;;9.10;1.53;;;;;;;9.01;95.13;99993.97;5054758;28;20222;-79
2022/09/18 00:56:04;;;;;;;3.30;1.40;;;;;;;9.05;94.66;99981.78;5054808;28;20205;-80
2022/09/18 00:58:30;;;;;;;4.20;1.60;;;;;;;9.00;95.09;99981.00;5054945;28;20201;-80
2022/09/18 01:00:58;;;;;;;9.60;1.60;;;;;;;9.08;95.06;99985.19;5054785;28;20205;-79
2022/09/18 01:03:24;;;;;;;5.77;1.50;;;;;;;9.17;94.97;99991.09;5054501;28;20205;-81
2022/09/18 01:06:06;;;;;;;10.23;1.43;;;;;;;9.24;93.88;100011.75;5054251;28;20226;-81
2022/09/18 01:08:42;;;;;;;6.40;1.50;;;;;;;9.29;93.43;100030.75;5054297;28;20634;-80
2022/09/18 01:11:20;;;;;;;7.07;1.37;;;;;;;9.26;94.40;100022.16;5054379;28;20609;-80
2022/09/18 01:14:01;;;;;;;7.27;1.70;;;;;;;9.26;94.01;100033.44;5054406;28;20256;-79
2022/09/18 01:16:33;;;;;;;7.97;1.87;;;;;;;9.31;93.54;100038.53;5053967;28;20201;-80
2022/09/18 01:19:09;;;;;;;4.57;1.53;;;;;;;9.23;93.61;100043.03;5055155;28;20620;-79
2022/09/18 01:21:42;;;;;;;3.13;1.10;;;;;;;9.24;93.55;100045.63;5055242;28;20225;-80
2022/09/18 01:24:42;;;;;;;4.73;1.27;;;;;;;9.28;93.33;100049.88;5054194;28;20289;-79
2022/09/18 01:27:15;;;;;;;6.87;1.90;;;;;;;9.22;93.98;100033.53;5054110;28;20207;-81
2022/09/18 01:29:51;;;;;;;4.10;1.60;;;;;;;9.24;93.77;100034.34;5054264;28;20276;-79
2022/09/18 01:32:24;;;;;;;5.40;2.10;;;;;;;9.33;93.38;100050.63;5054221;28;20202;-80
2022/09/18 01:35:00;;;;;;;3.60;1.20;;;;;;;9.33;93.81;100040.19;5053961;28;20636;-79
2022/09/18 01:37:32;;;;;;;5.87;1.33;;;;;;;9.30;93.14;100048.09;5054434;28;20206;-79
2022/09/18 01:40:06;;;;;;;3.37;1.17;;;;;;;9.28;93.67;100051.63;5054092;28;20206;-79
2022/09/18 01:42:34;;;;;;;5.00;1.30;;;;;;;9.31;93.42;100041.97;5054302;28;20275;-79
2022/09/18 01:45:09;;;;;;;5.23;1.03;;;;;;;9.27;93.36;100042.94;5053778;28;20291;-79
2022/09/18 01:47:41;;;;;;;6.77;1.63;;;;;;;9.27;93.30;100049.91;5054812;28;20210;-81
2022/09/18 01:50:11;;;;;;;7.37;1.80;;;;;;;9.33;92.67;100047.16;5054501;28;20205;-80
2022/09/18 01:52:42;;;;;;;3.40;1.10;;;;;;;9.36;92.96;100047.13;5053718;28;20205;-79
2022/09/18 01:55:15;;;;;;;9.00;1.43;;;;;;;9.44;92.84;100060.00;5054072;28;20589;-81
2022/09/18 01:57:46;;;;;;;3.07;1.43;;;;;;;9.42;92.75;100059.16;5053949;28;20205;-80
2022/09/18 02:00:15;;;;;;;3.53;1.00;;;;;;;9.43;92.69;100064.31;5053959;28;20211;-79
2022/09/18 02:02:46;;;;;;;4.27;2.33;;;;;;;9.47;92.25;100076.41;5053563;28;20225;-80
2022/09/18 02:05:17;;;;;;;6.53;2.10;;;;;;;9.45;92.33;100078.16;5053468;28;20283;-79
2022/09/18 02:07:49;;;;;;;3.97;1.23;;;;;;;9.58;92.15;100083.16;5053550;28;20245;-80
2022/09/18 02:10:16;;;;;;;5.87;1.50;;;;;;;9.54;92.05;100093.63;5053215;28;20224;-79
2022/09/18 02:12:45;;;;;;;3.87;1.20;;;;;;;9.47;91.66;100093.78;5053390;28;20208;-79
2022/09/18 02:15:15;;;;;;;4.87;1.50;;;;;;;9.52;92.09;100098.00;5053010;28;20227;-79
2022/09/18 02:17:47;;;;;;;4.87;1.23;;;;;;;9.43;92.27;100087.75;5053070;28;20247;-79
2022/09/18 02:20:19;;;;;;;4.10;1.40;;;;;;;9.47;92.63;100080.75;5052916;28;20213;-79
2022/09/18 02:22:50;;;;;;;7.00;1.20;;;;;;;9.36;92.63;100067.09;5053120;28;20233;-81
2022/09/18 02:25:21;;;;;;;3.57;1.00;;;;;;;9.43;92.70;100082.56;5052587;28;20715;-80
2022/09/18 02:27:51;;;;;;;5.73;1.37;;;;;;;9.40;92.53;100076.56;5052796;28;20617;-80
2022/09/18 02:30:19;;;;;;;3.03;1.10;;;;;;;9.38;92.32;100083.56;5052875;28;20215;-79
2022/09/18 02:32:46;;;;;;;3.57;1.10;;;;;;;9.33;92.84;100066.25;5052802;28;20210;-79
2022/09/18 02:35:14;;;;;;;3.17;1.20;;;;;;;9.30;92.51;100055.91;5052876;28;20229;-81
2022/09/18 02:37:53;;;;;;;4.63;1.30;;;;;;;9.30;92.42;100061.13;5052944;28;20221;-79
2022/09/18 02:40:30;;;;;;;6.97;1.33;;;;;;;9.39;92.50;100072.25;5052663;28;20263;-82
2022/09/18 02:43:11;;;;;;;3.77;1.30;;;;;;;9.38;92.23;100066.19;5032578;28;20702;-80
2022/09/18 02:45:48;;;;;;;4.13;0.97;;;;;;;9.26;92.48;100069.03;5032820;28;20276;-81
2022/09/18 02:48:30;;;;;;;4.17;0.97;;;;;;;9.27;92.30;100074.19;5033195;28;20271;-79
2022/09/18 02:51:02;;;;;;;2.90;1.00;;;;;;;9.28;91.76;100083.72;5033437;28;20750;-79
2022/09/18 02:53:31;;;;;;;6.00;1.60;;;;;;;9.25;91.51;100090.75;5032829;28;20209;-80
2022/09/18 02:56:02;;;;;;;3.70;1.20;;;;;;;9.20;91.80;100096.03;5032866;28;20256;-79
2022/09/18 02:58:34;;;;;;;4.47;1.10;;;;;;;9.13;92.19;100086.63;5033022;28;20211;-79
2022/09/18 03:01:04;;;;;;;3.70;1.30;;;;;;;9.02;92.44;100068.63;5032861;28;20203;-79
2022/09/18 03:03:33;;;;;;;4.93;1.27;;;;;;;9.07;92.43;100063.31;5032760;28;20373;-80
2022/09/18 03:06:00;;;;;;;4.80;1.30;;;;;;;9.11;92.70;100052.78;5032484;28;20234;-79
2022/09/18 03:08:27;;;;;;;6.50;1.20;;;;;;;9.18;92.12;100063.97;5035365;28;20305;-79
2022/09/18 03:10:53;;;;;;;3.40;1.27;;;;;;;9.20;91.71;100059.59;5052450;28;20641;-80
2022/09/18 03:13:20;;;;;;;5.83;1.10;;;;;;;9.21;91.80;100063.91;5052883;28;20251;-80
2022/09/18 03:15:47;;;;;;;8.70;1.50;;;;;;;9.17;92.40;100061.38;5052337;28;20221;-81
2022/09/18 03:18:14;;;;;;;3.20;1.00;;;;;;;9.25;92.23;100052.53;5052793;28;20241;-79
2022/09/18 03:20:42;;;;;;;9.00;2.17;;;;;;;9.23;92.79;100043.88;5053307;28;20694;-79
2022/09/18 03:23:09;;;;;;;3.63;1.73;;;;;;;9.17;92.94;100038.81;5052809;28;20637;-79
2022/09/18 03:25:36;;;;;;;4.73;1.23;;;;;;;9.17;93.55;100015.38;5052548;28;20276;-81
2022/09/18 03:28:03;;;;;;;4.50;1.23;;;;;;;9.21;93.41;99998.78;5052695;28;20635;-81
2022/09/18 03:30:29;;;;;;;2.60;1.33;;;;;;;9.22;93.44;100003.13;5053020;28;20206;-82
2022/09/18 03:32:55;;;;;;;4.17;1.00;;;;;;;9.19;94.08;100003.16;5056554;28;20672;-79
2022/09/18 03:35:24;;;;;;;5.33;2.53;;;;;;;9.28;93.75;99999.53;5057451;28;20258;-80
2022/09/18 03:37:50;;;;;;;5.17;2.20;;;;;;;9.22;94.14;99995.31;5057581;28;20205;-79
2022/09/18 03:40:17;;;;;;;5.83;1.77;;;;;;;9.14;94.07;99997.22;5057586;28;20214;-80
2022/09/18 03:42:44;;;;;;;3.67;1.60;;;;;;;9.25;94.01;100004.81;5057313;28;20226;-80
2022/09/18 03:45:11;;;;;;;5.57;1.80;;;;;;;9.05;94.34;99986.97;5057540;28;20235;-81
2022/09/18 03:47:38;;;;;;;3.27;1.27;;;;;;;9.03;94.73;99975.75;5058373;28;20681;-79
2022/09/18 03:50:06;;;;;;;6.73;1.63;;;;;;;9.04;94.40;99980.03;5058277;28;20201;-80
2022/09/18 03:52:34;;;;;;;5.57;1.63;;;;;;;8.99;94.72;99979.28;5059462;28;20198;-81
2022/09/18 03:55:00;;;;;;;7.57;1.57;;;;;;;8.85;95.63;99948.34;5061849;28;20237;-81
2022/09/18 03:57:27;;;;;;;8.90;2.70;;;;;;;8.92;95.93;99949.94;5063674;28;20236;-81
2022/09/18 03:59:53;;;;;;;5.93;1.70;;;;;;;8.92;95.64;99953.38;5064935;28;20206;-80
2022/09/18 04:02:19;;;;;;;4.23;1.93;;;;;;;8.96;95.84;99946.38;5066099;28;20229;-81
2022/09/18 04:04:46;;;;;;;6.17;2.00;;;;;;;8.94;96.00;99948.16;5065462;28;20258;-79
2022/09/18 04:07:12;;;;;;;3.17;1.67;;;;;;;8.84;96.33;99933.59;5064242;28;20209;-80
2022/09/18 04:09:40;;;;;;;7.20;2.13;;;;;;;8.76;96.94;99920.75;5064715;28;20215;-80
2022/09/18 04:12:07;;;;;;;5.10;1.90;;;;;;;8.79;97.67;99922.44;5065772;28;20205;-79
2022/09/18 04:14:33;;;;;;;7.97;2.07;;;;;;;8.75;98.16;99901.66;5060481;28;20296;-79
2022/09/18 04:17:00;;;;;;;6.23;1.60;;;;;;;8.70;98.35;99900.03;5061080;28;20267;-79
2022/09/18 04:19:26;;;;;;;6.80;2.10;;;;;;;8.72;98.45;99899.13;5063369;28;20288;-79
2022/09/18 04:21:53;;;;;;;3.67;1.50;;;;;;;8.77;98.52;99900.78;5056054;28;20255;-80
2022/09/18 04:24:19;;;;;;;7.33;1.90;;;;;;;8.91;97.80;99901.34;5055123;28;20251;-80
2022/09/18 04:26:47;;;;;;;6.37;1.90;;;;;;;8.96;97.50;99904.72;5055293;28;20257;-80
2022/09/18 04:29:13;;;;;;;3.50;1.43;;;;;;;8.85;97.37;99919.69;5055193;28;20215;-82
2022/09/18 04:31:39;;;;;;;7.60;1.90;;;;;;;8.93;97.19;99923.84;5055357;28;20206;-81
2022/09/18 04:34:06;;;;;;;4.17;1.70;;;;;;;8.94;96.94;99929.94;5055135;28;20229;-79
2022/09/18 04:36:32;;;;;;;5.03;2.40;;;;;;;8.87;97.49;99923.97;5054970;28;20248;-80
2022/09/18 04:38:59;;;;;;;7.30;2.30;;;;;;;8.97;97.08;99929.84;5054709;28;20242;-79
2022/09/18 04:41:25;;;;;;;4.70;2.30;;;;;;;8.94;97.34;99932.53;5054691;28;20205;-79
2022/09/18 04:43:53;;;;;;;6.43;1.87;;;;;;;8.92;97.39;99927.34;5054722;28;20227;-79
2022/09/18 04:46:19;;;;;;;4.03;2.13;;;;;;;8.89;97.27;99934.38;5055607;28;20202;-79
2022/09/18 04:48:48;;;;;;;5.00;2.03;;;;;;;8.94;97.19;99929.94;5055697;28;20209;-81
2022/09/18 04:51:15;;;;;;;4.53;2.07;;;;;;;8.98;97.36;99936.78;5054552;28;20209;-79
2022/09/18 04:53:41;;;;;;;3.60;2.27;;;;;;;9.01;96.64;99949.72;5054869;28;20260;-79
2022/09/18 04:56:08;;;;;;;12.67;2.60;;;;;;;9.07;96.18;99952.22;5054787;28;20241;-79
2022/09/18 04:58:34;;;;;;;10.43;2.50;;;;;;;9.10;96.41;99970.38;5054867;28;20252;-79
2022/09/18 05:01:02;;;;;;;7.00;2.67;;;;;;;9.17;95.87;99981.50;5054729;28;20675;-78
2022/09/18 05:03:28;;;;;;;4.23;2.60;;;;;;;8.95;96.51;99968.94;5054904;28;20287;-79
2022/09/18 05:05:55;;;;;;;6.63;2.43;;;;;;;9.03;96.85;99954.91;5054295;28;20225;-79
2022/09/18 05:08:22;;;;;;;7.23;2.23;;;;;;;9.07;97.05;99941.78;5054524;28;20206;-81
2022/09/18 05:10:48;;;;;;;4.93;2.27;;;;;;;9.02;97.58;99943.66;5046495;28;20632;-81
2022/09/18 05:13:15;;;;;;;4.97;2.10;;;;;;;9.08;97.84;99937.47;5054624;28;20260;-81
2022/09/18 05:15:41;;;;;;;8.97;2.00;;;;;;;9.14;97.44;99940.78;5057059;28;20755;-81
2022/09/18 05:18:12;;;;;;;5.40;2.10;;;;;;;9.16;97.27;99943.38;5057458;28;20209;-80
2022/09/18 05:20:39;;;;;;;3.47;1.70;;;;;;;9.27;96.72;99954.38;5055082;28;20246;-82
2022/09/18 05:23:06;;;;;;;3.63;1.80;;;;;;;9.29;96.38;99967.38;5054790;28;20232;-82
2022/09/18 05:25:32;;;;;;;5.67;1.77;;;;;;;9.26;96.51;99973.53;5054686;28;20252;-81
2022/09/18 05:28:00;;;;;;;5.70;2.33;;;;;;;9.28;96.71;99984.75;5054354;28;20212;-81
2022/09/18 05:30:27;;;;;;;4.23;1.83;;;;;;;9.38;96.23;99989.78;5054368;28;20201;-80
2022/09/18 05:32:56;;;;;;;4.90;2.60;;;;;;;9.38;96.07;100003.66;5054409;28;20211;-80
2022/09/18 05:35:24;;;;;;;6.13;1.90;;;;;;;9.35;97.00;99990.69;5054121;28;20285;-81
2022/09/18 05:37:51;;;;;;;5.87;2.07;;;;;;;9.39;97.50;99940.25;5054252;28;20615;-82
2022/09/18 05:40:17;;;;;;;3.33;1.53;;;;;;;9.19;99.18;99916.41;5053635;28;20244;-81
2022/09/18 05:42:45;;;;;;;5.40;2.13;;;;;;;9.06;100.00;99863.75;5053946;28;20205;-84
2022/09/18 05:45:12;;;;;;;4.27;1.80;;;;;;;9.02;100.00;99849.06;5053279;28;20282;-81
2022/09/18 05:47:39;;;;;;;5.50;2.30;;;;;;;9.03;100.00;99835.16;5053859;28;20245;-81
2022/09/18 05:50:07;;;;;;;4.40;2.07;;;;;;;9.05;100.00;99810.78;5053642;28;20205;-82
2022/09/18 05:52:35;;;;;;;5.37;2.80;;;;;;;9.10;100.00;99810.72;5054091;28;20674;-82
2022/09/18 05:55:01;;;;;;;4.20;2.10;;;;;;;9.10;100.00;99811.56;5052748;28;20284;-84
2022/09/18 05:57:27;;;;;;;2.33;1.90;;;;;;;9.08;100.00;99812.50;5053604;28;20890;-83
2022/09/18 05:59:54;;;;;;;3.73;2.33;;;;;;;9.13;100.00;99826.25;5053829;28;20209;-87
2022/09/18 06:02:20;;;;;;;6.27;2.37;;;;;;;9.07;100.00;99848.06;5053445;28;20674;-85
2022/09/18 06:04:47;;;;;;;6.10;1.90;;;;;;;9.13;100.00;99857.50;5053612;28;20225;-87
2022/09/18 06:07:15;;;;;;;7.00;2.03;;;;;;;9.15;100.00;99861.75;5053250;28;20210;-83
2022/09/18 06:09:42;;;;;;;8.00;2.50;;;;;;;9.17;100.00;99858.28;5053511;28;20209;-85
2022/09/18 06:12:09;;;;;;;3.97;2.20;;;;;;;9.11;100.00;99860.13;5053101;28;20204;-86
2022/09/18 06:14:36;;;;;;;6.10;2.73;;;;;;;9.11;100.00;99862.72;5053153;28;20229;-84
2022/09/18 06:17:02;;;;;;;4.80;2.43;;;;;;;9.25;100.00;99877.19;5043680;28;20215;-84
2022/09/18 06:19:29;;;;;;;3.40;2.07;;;;;;;9.30;100.00;99875.34;5043203;28;20202;-83
2022/09/18 06:21:55;;;;;;;4.23;2.40;;;;;;;9.31;100.00;99883.09;5042047;28;20267;-83
2022/09/18 06:24:22;;;;;;;5.33;2.77;;;;;;;9.30;100.00;99881.41;5043921;28;20230;-86
2022/09/18 06:26:49;;;;;;;6.80;2.47;;;;;;;9.28;100.00;99890.16;5044190;28;20198;-82
2022/09/18 06:29:16;;;;;;;5.60;2.70;;;;;;;9.36;100.00;99888.22;5045825;28;20917;-83
2022/09/18 06:31:42;;;;;;;3.60;2.30;;;;;;;9.40;100.00;99889.88;5052812;28;20241;-86
2022/09/18 06:34:09;;;;;;;7.73;3.30;;;;;;;9.48;100.00;99892.31;5059305;28;20281;-85
2022/09/18 06:36:35;;;;;;;8.40;3.47;;;;;;;9.62;100.00;99897.19;5057517;28;20209;-83
2022/09/18 06:39:02;;;;;;;4.03;2.43;;;;;;;9.70;100.00;99893.50;5055709;28;20255;-83
2022/09/18 06:41:28;;;;;;;6.13;2.33;;;;;;;9.87;100.00;99894.81;5056033;28;20194;-84
2022/09/18 06:43:56;;;;;;;5.30;2.13;;;;;;;9.90;100.00;99920.84;5056468;28;20581;-88
2022/09/18 06:46:23;;;;;;;4.93;1.80;;;;;;;9.98;100.00;99942.34;5056293;28;20256;-84
2022/09/18 06:48:49;;;;;;;5.03;1.83;;;;;;;9.90;100.00;99954.72;5056842;28;20287;-85
2022/09/18 06:51:16;;;;;;;6.93;2.17;;;;;;;9.96;100.00;99957.19;5057787;28;20268;-86
2022/09/18 06:53:42;;;;;;;3.53;1.57;;;;;;;9.98;99.98;99963.22;5055804;28;20194;-84
2022/09/18 06:56:09;;;;;;;2.10;1.50;;;;;;;10.05;99.84;99959.56;5056242;28;20194;-85
2022/09/18 06:58:35;;;;;;;5.57;1.97;;;;;;;9.99;98.88;99979.69;5056227;28;20204;-84
2022/09/18 07:01:03;;;;;;;7.50;2.27;;;;;;;9.99;98.52;99987.53;5057233;28;20209;-84
2022/09/18 07:03:29;;;;;;;7.10;1.80;;;;;;;10.08;98.81;99984.72;5056356;28;20223;-83
2022/09/18 07:05:56;;;;;;;4.77;1.53;;;;;;;10.00;97.50;100013.56;5057175;28;20221;-83
2022/09/18 07:08:22;;;;;;;6.87;1.87;;;;;;;10.09;97.47;100005.53;5056274;28;20670;-82
2022/09/18 07:10:49;;;;;;;5.80;1.70;;;;;;;10.22;97.82;100000.03;5055887;28;20198;-83
2022/09/18 07:13:15;;;;;;;4.07;1.33;;;;;;;10.17;95.76;100035.78;5058007;28;20204;-84
2022/09/18 07:15:42;;;;;;;2.17;1.37;;;;;;;10.28;95.61;100055.50;5057186;28;20263;-82
2022/09/18 07:18:09;;;;;;;2.20;1.30;;;;;;;10.38;95.44;100032.69;5056569;28;20282;-84
2022/09/18 07:20:36;;;;;;;4.73;1.30;;;;;;;10.47;94.88;100076.81;5057326;28;20208;-84
2022/09/18 07:23:02;;;;;;;3.40;1.23;;;;;;;10.57;94.64;100063.56;5057600;28;20257;-86
2022/09/18 07:25:31;;;;;;;4.17;1.27;;;;;;;10.50;94.09;100075.88;5058428;28;20290;-85
2022/09/18 07:28:02;;;;;;;3.83;1.80;;;;;;;10.53;93.88;100092.34;5057109;28;20194;-84
2022/09/18 07:30:28;;;;;;;4.73;1.63;;;;;;;10.49;93.55;100088.09;5055645;28;20545;-86
2022/09/18 07:32:55;;;;;;;3.87;1.70;;;;;;;10.49;93.60;100082.88;5057367;28;20280;-85
2022/09/18 07:35:23;;;;;;;7.77;2.40;;;;;;;10.58;93.57;100099.19;5058623;28;20229;-85
2022/09/18 07:37:49;;;;;;;2.47;1.30;;;;;;;10.58;93.38;100096.56;5058484;28;20208;-83
2022/09/18 07:40:16;;;;;;;4.43;1.83;;;;;;;10.70;92.77;100106.72;5056838;28;20207;-85
2022/09/18 07:42:42;;;;;;;3.77;1.33;;;;;;;10.75;93.46;100096.19;5057913;28;20210;-85
2022/09/18 07:45:09;;;;;;;6.27;1.40;;;;;;;10.77;92.58;100103.06;5059266;28;20254;-82
2022/09/18 07:47:35;;;;;;;4.30;1.60;;;;;;;10.86;92.29;100108.06;5058577;28;20205;-83
2022/09/18 07:50:02;;;;;;;4.70;1.47;;;;;;;10.93;91.77;100127.03;5059563;28;20204;-85
2022/09/18 07:52:30;;;;;;;3.53;1.40;;;;;;;10.97;92.27;100102.56;5059040;28;20219;-85
2022/09/18 07:54:56;;;;;;;4.73;1.20;;;;;;;10.94;91.20;100128.72;5058837;28;20427;-83
2022/09/18 07:57:23;;;;;;;3.07;1.43;;;;;;;10.92;90.71;100156.63;5060682;28;20209;-83
2022/09/18 07:59:49;;;;;;;5.17;1.40;;;;;;;10.96;90.44;100158.31;5059236;28;20269;-84
2022/09/18 08:02:16;;;;;;;2.70;1.30;;;;;;;11.04;90.44;100161.56;5062336;28;20742;-79
2022/09/18 08:04:42;;;;;;;5.10;1.20;;;;;;;11.04;89.83;100169.41;5061569;28;20299;-85
2022/09/18 08:07:09;;;;;;;4.20;1.30;;;;;;;11.05;89.62;100171.13;5062058;28;20214;-84
2022/09/18 08:09:37;;;;;;;3.53;1.20;;;;;;;11.10;89.49;100164.03;5062171;28;20480;-84
2022/09/18 08:12:03;;;;;;;4.23;1.60;;;;;;;11.15;90.22;100166.50;5062261;28;20597;-81
2022/09/18 08:14:30;;;;;;;2.67;1.00;;;;;;;11.11;91.49;100128.31;5061251;28;20633;-79
2022/09/18 08:16:57;;;;;;;3.30;1.07;;;;;;;10.92;92.02;100097.47;5060842;28;20237;-83
2022/09/18 08:19:23;;;;;;;1.60;1.10;;;;;;;10.92;92.98;100079.19;5060573;28;20201;-82
2022/09/18 08:21:49;;;;;;;3.83;1.30;;;;;;;10.91;93.25;100051.34;5063042;28;20195;-82
2022/09/18 08:24:16;;;;;;;2.00;1.10;;;;;;;10.76;93.70;100049.13;5064088;28;20223;-80
2022/09/18 08:26:45;;;;;;;1.83;1.00;;;;;;;10.79;93.37;100056.03;5063193;28;20208;-80
2022/09/18 08:29:17;;;;;;;4.17;1.07;;;;;;;10.83;91.81;100076.78;5063813;28;20752;-79
2022/09/18 08:31:44;;;;;;;3.23;0.90;;;;;;;10.94;91.49;100097.41;5064142;28;20270;-80
2022/09/18 08:34:10;;;;;;;2.43;1.10;;;;;;;10.98;90.14;100124.28;5064891;28;20779;-80
2022/09/18 08:36:36;;;;;;;2.20;0.70;;;;;;;10.93;89.63;100155.75;5064277;28;20202;-78
2022/09/18 08:39:03;;;;;;;1.20;0.70;;;;;;;10.86;89.05;100172.47;5063813;28;20213;-82
2022/09/18 08:41:39;;;;;;;4.50;0.87;;;;;;;10.91;89.54;100163.63;5063569;28;20228;-78
2022/09/18 08:44:11;;;;;;;3.10;1.00;;;;;;;10.93;90.08;100163.59;5064023;28;20237;-82
2022/09/18 08:46:40;;;;;;;3.63;2.07;;;;;;;11.03;89.42;100166.84;5062519;28;20212;-80
2022/09/18 08:49:22;;;;;;;1.53;0.87;;;;;;;10.97;89.56;100164.38;5056652;28;20205;-78
2022/09/18 08:51:54;;;;;;;2.43;0.97;;;;;;;11.15;89.51;100155.22;5052345;28;20204;-81
2022/09/18 08:54:28;;;;;;;1.53;0.70;;;;;;;11.33;89.77;100142.50;5051554;28;20221;-77
2022/09/18 08:56:57;;;;;;;4.03;2.47;;;;;;;11.35;88.01;100176.44;5050769;28;20200;-76
2022/09/18 08:59:33;;;;;;;1.17;0.80;;;;;;;11.32;89.91;100148.66;5049198;28;20603;-78
2022/09/18 09:02:19;;;;;;;2.70;1.00;;;;;;;11.52;89.91;100121.97;5049646;28;20748;-76
2022/09/18 09:04:46;;;;;;;1.20;0.80;;;;;;;11.60;89.30;100144.44;5050475;28;20777;-82
2022/09/18 09:07:31;;;;;;;1.77;0.80;;;;;;;11.42;89.25;100153.63;5053593;28;20249;-82
2022/09/18 09:10:17;;;;;;;1.67;0.73;;;;;;;11.41;89.45;100142.31;5061548;28;20206;-80
2022/09/18 09:12:51;;;;;;;3.53;1.00;;;;;;;11.49;89.10;100139.50;5057816;28;20201;-82
2022/09/18 09:15:27;;;;;;;3.03;1.03;;;;;;;11.58;89.56;100143.63;5053658;28;20713;-80
2022/09/18 09:18:01;;;;;;;3.13;1.50;;;;;;;11.67;89.13;100136.38;5052705;28;20201;-80
2022/09/18 09:20:38;;;;;;;3.27;1.37;;;;;;;11.60;89.06;100147.06;5054631;28;20257;-79
2022/09/18 09:23:14;;;;;;;1.70;1.10;;;;;;;11.56;87.81;100171.56;5053750;28;20259;-82
2022/09/18 09:25:48;;;;;;;3.97;0.97;;;;;;;11.53;87.29;100181.22;5053032;28;20221;-83
2022/09/18 09:28:19;;;;;;;1.50;1.17;;;;;;;11.59;87.77;100176.69;5053333;28;20213;-79
2022/09/18 09:31:08;;;;;;;1.20;0.93;;;;;;;11.65;87.53;100173.91;5053661;28;20233;-81
2022/09/18 09:33:39;;;;;;;3.00;1.23;;;;;;;11.64;87.08;100180.03;5057326;28;20229;-80
2022/09/18 09:36:08;;;;;;;1.20;1.10;;;;;;;11.67;86.82;100179.94;5060849;28;20204;-79
2022/09/18 09:38:44;;;;;;;2.60;0.83;;;;;;;11.80;86.40;100185.72;5061713;28;20214;-80
2022/09/18 09:41:20;;;;;;;1.93;0.80;;;;;;;11.81;84.79;100209.19;5058221;28;20735;-80
2022/09/18 09:43:57;;;;;;;2.87;0.80;;;;;;;11.77;84.95;100236.31;5060042;28;20213;-80
2022/09/18 09:46:40;;;;;;;0.87;0.60;;;;;;;11.90;85.21;100216.81;5060171;28;20216;-79
2022/09/18 09:49:13;;;;;;;3.50;0.67;;;;;;;11.83;83.39;100282.38;5060364;28;20212;-81
2022/09/18 09:51:51;;;;;;;1.23;0.50;;;;;;;11.83;84.08;100291.09;5060011;28;20257;-79
2022/09/18 09:54:17;;;;;;;1.03;0.60;;;;;;;11.89;83.85;100282.22;5060929;28;20226;-80
2022/09/18 09:56:52;;;;;;;1.60;0.50;;;;;;;11.67;81.93;100331.59;5060257;28;20257;-80
2022/09/18 09:59:27;;;;;;;0.97;0.47;;;;;;;11.78;80.86;100337.41;5061926;28;20678;-79
2022/09/18 10:02:01;;;;;;;1.47;0.97;;;;;;;11.52;79.85;100396.44;5062196;28;20571;-82
2022/09/18 10:04:35;;;;;;;0.77;0.43;;;;;;;11.68;81.95;100347.25;5059603;28;20753;-80
2022/09/18 10:07:12;;;;;;;1.57;1.13;;;;;;;11.69;80.69;100369.91;5058589;28;20260;-80
2022/09/18 10:09:47;;;;;;;1.43;0.60;;;;;;;11.84;81.90;100324.19;5058494;28;20244;-80
2022/09/18 10:12:24;;;;;;;1.17;0.80;;;;;;;11.83;82.03;100332.06;5052057;28;20299;-82
2022/09/18 10:14:54;;;;;;;3.20;0.60;;;;;;;11.74;81.34;100333.16;5053010;28;20226;-80
2022/09/18 10:17:23;;;;;;;1.83;0.47;;;;;;;11.59;80.20;100350.06;5050525;28;20246;-79
2022/09/18 10:19:50;;;;;;;1.90;0.60;;;;;;;11.62;81.62;100333.47;5051290;28;20612;-84
2022/09/18 10:22:21;;;;;;;1.03;0.70;;;;;;;11.66;82.02;100286.28;5055283;28;20242;-82
2022/09/18 10:24:55;;;;;;;2.63;0.87;;;;;;;11.79;82.10;100293.81;5047038;28;20236;-84
2022/09/18 10:27:22;;;;;;;1.90;0.70;;;;;;;11.75;82.42;100272.09;5054368;28;20232;-82
2022/09/18 10:29:48;;;;;;;2.00;0.60;;;;;;;11.62;81.57;100275.97;5048211;28;20237;-83
2022/09/18 10:32:33;;;;;;;3.23;0.93;;;;;;;11.62;82.95;100257.66;5058166;28;20228;-82
2022/09/18 10:35:00;;;;;;;1.83;0.50;;;;;;;11.68;82.27;100249.66;5058261;28;20232;-78
2022/09/18 10:37:38;;;;;;;2.10;1.10;;;;;;;11.59;82.30;100281.25;4359855;28;10000732;-77
2022/09/18 10:40:07;;;;;;;1.70;0.70;;;;;;;11.67;82.66;100248.81;5051789;28;20724;-77
2022/09/18 10:42:35;;;;;;;0.73;0.60;;;;;;;11.73;82.35;100266.06;5054551;28;20209;-78
2022/09/18 10:45:07;;;;;;;1.00;0.70;;;;;;;11.80;81.97;100274.63;5053805;28;20231;-78
2022/09/18 10:47:36;;;;;;;3.47;1.23;;;;;;;11.98;81.32;100255.00;5053380;28;20211;-78
2022/09/18 10:50:15;;;;;;;2.10;0.97;;;;;;;11.98;81.79;100287.22;5051989;28;20237;-77
2022/09/18 10:52:42;;;;;;;4.30;1.33;;;;;;;12.13;83.02;100238.88;5054787;28;20281;-77
2022/09/18 10:55:19;;;;;;;1.87;0.90;;;;;;;11.83;80.43;100314.63;5051151;28;20257;-76
2022/09/18 10:58:02;;;;;;;1.70;0.60;;;;;;;12.02;80.98;100311.56;5054075;28;20240;-76
2022/09/18 11:00:43;;;;;;;1.20;0.70;;;;;;;12.00;81.68;100276.72;5051853;28;20261;-77
2022/09/18 11:03:23;;;;;;;1.07;0.87;;;;;;;12.00;81.50;100279.34;5049408;28;20272;-77
2022/09/18 11:05:54;;;;;;;1.83;0.47;;;;;;;11.96;80.82;100303.88;5049813;28;20759;-78
2022/09/18 11:08:24;;;;;;;0.73;0.63;;;;;;;11.89;78.23;100351.13;5051011;28;20261;-77
2022/09/18 11:10:57;;;;;;;0.50;0.50;;;;;;;11.86;80.28;100330.22;5051196;28;20207;-76
2022/09/18 11:13:26;;;;;;;2.13;0.80;;;;;;;11.85;79.64;100330.25;5049825;28;20230;-76
2022/09/18 11:15:56;;;;;;;1.30;0.50;;;;;;;11.84;79.28;100344.25;5051249;28;20226;-77
2022/09/18 11:18:25;;;;;;;1.60;0.67;;;;;;;11.78;80.10;100344.41;5051513;28;20242;-77
2022/09/18 11:20:53;;;;;;;1.30;0.50;;;;;;;11.93;79.39;100333.56;5056960;28;20266;-81
2022/09/18 11:23:27;;;;;;;0.97;0.47;;;;;;;12.06;79.91;100331.50;5056341;28;20211;-78
2022/09/18 11:26:15;;;;;;;1.47;0.53;;;;;;;11.90;79.58;100326.66;5056473;28;20249;-80
2022/09/18 11:28:41;;;;;;;1.00;0.70;;;;;;;12.06;80.27;100274.78;5048087;28;20305;-80
2022/09/18 11:31:14;;;;;;;1.13;0.50;;;;;;;11.97;81.56;100263.72;5055255;28;20207;-81
2022/09/18 11:33:47;;;;;;;1.20;0.63;;;;;;;11.99;80.92;100246.22;5056756;28;20212;-79
2022/09/18 11:36:21;;;;;;;1.77;0.83;;;;;;;11.90;80.85;100263.88;5055489;28;20206;-81
2022/09/18 11:38:49;;;;;;;1.13;0.47;;;;;;;11.94;80.25;100261.22;5054939;28;20207;-81
2022/09/18 11:41:23;;;;;;;0.93;0.60;;;;;;;11.97;80.12;100275.06;5055111;28;20211;-79
2022/09/18 11:44:01;;;;;;;0.80;0.40;;;;;;;11.91;79.46;100290.91;5056171;28;20213;-80